Аэропорт
Чжоушуйцзы (ZYTL)

 ZYTL / DLC

China
CN-21
Чжоушуйцзы
 38.96570, 121.53900  / 107 ft

 ZYTL 201700Z 10003MPS CAVOK 04/03 Q1030 NOSIG
 TAF ZYTL 200912Z 2012/2112 20004G10MPS 3000 BR SCT026 TX04/2106Z TN00/2021Z TEMPO 2012/2018 11005MPS 2000 TEMPO 2018/2024 1400 TEMPO 2100/2106 2000 RA BR BKN010 OVC030 BECMG 2106/2107 28004G10MPS

2020 © VATRUS division (Privacy Policy)